Time;durP1;ratioP1;P1;durP2;ratioP2;P2;SDS_P1;SDS_P2;PMS_P1;PMS_P2;Temp;Humidity;BMP_temperature;BMP_pressure;BME280_temperature;BME280_humidity;BME280_pressure;Samples;Min_cycle;Max_cycle;Signal;HPM_P1;HPM_P2
2022/03/27 00:00:38;;;;;;;9.33;4.70;;;6.80;99.90;;;;;;4925165;29;20232;-64
2022/03/27 00:03:07;;;;;;;7.57;3.90;;;6.60;99.90;;;;;;4914824;29;20744;-64
2022/03/27 00:05:36;;;;;;;6.43;4.10;;;6.80;99.90;;;;;;4931791;29;20242;-64
2022/03/27 00:08:06;;;;;;;8.40;4.30;;;6.80;99.90;;;;;;4933622;29;20240;-64
2022/03/27 00:11:23;;;;;;;6.77;4.47;;;6.70;99.90;;;;;;4933268;29;20326;-64
2022/03/27 00:13:24;;;;;;;7.47;4.10;;;6.70;99.90;;;;;;4933189;29;20267;-64
2022/03/27 00:15:53;;;;;;;5.80;3.90;;;6.80;99.90;;;;;;4914831;29;20247;-64
2022/03/27 00:18:21;;;;;;;6.20;4.73;;;6.60;99.90;;;;;;4916517;29;20253;-64
2022/03/27 00:20:49;;;;;;;9.37;5.30;;;6.50;99.90;;;;;;4903538;29;20268;-64
2022/03/27 00:23:20;;;;;;;9.73;4.33;;;6.50;99.90;;;;;;4914671;29;20689;-64
2022/03/27 00:25:50;;;;;;;8.80;5.20;;;6.50;99.90;;;;;;4933408;29;20589;-64
2022/03/27 00:28:18;;;;;;;9.27;5.43;;;6.40;99.90;;;;;;4933701;29;20243;-64
2022/03/27 00:30:46;;;;;;;9.00;5.03;;;6.50;99.90;;;;;;4925539;29;20249;-64
2022/03/27 00:33:15;;;;;;;11.07;5.20;;;6.50;99.90;;;;;;4914660;29;20571;-64
2022/03/27 00:35:43;;;;;;;10.77;5.40;;;6.70;99.90;;;;;;4932273;29;20726;-64
2022/03/27 00:38:11;;;;;;;9.63;4.53;;;6.80;99.90;;;;;;4933341;29;20569;-64
2022/03/27 00:40:41;;;;;;;9.97;4.63;;;6.70;99.90;;;;;;4926356;29;20225;-64
2022/03/27 00:43:09;;;;;;;10.17;4.93;;;6.70;99.90;;;;;;4914412;29;20320;-64
2022/03/27 00:45:37;;;;;;;6.73;3.93;;;6.50;99.90;;;;;;4931605;29;20244;-64
2022/03/27 00:48:06;;;;;;;8.30;4.60;;;6.40;99.90;;;;;;4933345;29;20240;-64
2022/03/27 00:50:34;;;;;;;11.37;5.37;;;6.50;99.90;;;;;;4932734;29;20275;-64
2022/03/27 00:53:02;;;;;;;6.87;4.70;;;6.40;99.90;;;;;;4932987;29;20720;-64
2022/03/27 00:55:31;;;;;;;9.80;4.87;;;6.20;99.90;;;;;;4932891;29;20473;-64
2022/03/27 00:58:01;;;;;;;8.23;4.30;;;6.40;99.90;;;;;;4927389;29;20251;-64
2022/03/27 01:00:54;;;;;;;11.20;4.43;;;6.40;99.90;;;;;;4914053;29;20271;-64
2022/03/27 01:03:25;;;;;;;10.60;4.90;;;6.30;99.90;;;;;;4912409;29;20240;-64
2022/03/27 01:05:57;;;;;;;10.40;4.90;;;6.50;99.90;;;;;;4898815;29;20689;-64
2022/03/27 01:11:19;;;;;;;8.17;4.63;;;6.60;99.90;;;;;;4893359;29;20740;-64
2022/03/27 01:13:50;;;;;;;10.80;4.70;;;6.40;99.90;;;;;;4917538;29;20251;-64
2022/03/27 01:16:32;;;;;;;7.77;4.13;;;6.20;99.90;;;;;;4917765;29;20256;-64
2022/03/27 01:19:01;;;;;;;12.40;5.03;;;6.30;99.90;;;;;;4917510;29;20319;-64
2022/03/27 01:21:31;;;;;;;13.97;5.33;;;6.40;99.90;;;;;;4917736;29;20244;-64
2022/03/27 01:23:59;;;;;;;13.67;5.20;;;6.30;99.90;;;;;;4922472;29;20254;-64
2022/03/27 01:26:27;;;;;;;10.97;4.70;;;6.40;99.90;;;;;;4936506;29;20258;-64
2022/03/27 01:28:55;;;;;;;15.37;5.10;;;6.20;99.90;;;;;;4936425;29;20600;-64
2022/03/27 01:31:24;;;;;;;13.00;5.13;;;6.10;99.90;;;;;;4924273;29;20228;-64
2022/03/27 01:33:53;;;;;;;17.10;6.17;;;6.20;99.90;;;;;;4917447;29;20242;-64
2022/03/27 01:36:23;;;;;;;21.13;7.30;;;6.00;99.90;;;;;;4917400;29;20255;-64
2022/03/27 01:38:55;;;;;;;21.07;7.10;;;6.00;99.90;;;;;;4920645;29;20780;-64
2022/03/27 01:41:23;;;;;;;12.90;5.70;;;6.00;99.90;;;;;;4924210;29;20240;-64
2022/03/27 01:43:52;;;;;;;18.80;6.10;;;6.10;99.90;;;;;;4917352;29;20613;-64
2022/03/27 01:46:20;;;;;;;16.53;7.27;;;6.20;99.90;;;;;;4917154;29;20245;-64
2022/03/27 01:48:49;;;;;;;20.90;7.10;;;6.20;99.90;;;;;;4920256;29;20653;-64
2022/03/27 01:51:17;;;;;;;17.20;6.90;;;6.30;99.90;;;;;;4936101;29;20243;-64
2022/03/27 01:53:45;;;;;;;12.47;6.40;;;6.20;99.90;;;;;;4935833;29;20243;-64
2022/03/27 01:56:14;;;;;;;15.20;6.00;;;6.30;99.90;;;;;;4923833;29;20328;-64
2022/03/27 01:58:43;;;;;;;9.13;5.83;;;6.20;99.90;;;;;;4919109;29;20280;-64
2022/03/27 02:01:11;;;;;;;11.00;5.73;;;6.30;99.90;;;;;;4926536;29;20288;-64
2022/03/27 02:03:40;;;;;;;11.33;6.23;;;6.30;99.90;;;;;;4902474;29;20602;-64
2022/03/27 02:06:08;;;;;;;12.43;6.67;;;6.30;99.90;;;;;;4916437;29;20240;-64
2022/03/27 02:08:36;;;;;;;11.13;5.97;;;6.00;99.90;;;;;;4918443;29;20299;-64
2022/03/27 02:11:05;;;;;;;9.60;5.83;;;6.10;99.90;;;;;;4935732;29;20627;-64
2022/03/27 02:13:35;;;;;;;10.17;6.13;;;6.20;99.90;;;;;;4935409;29;20242;-64
2022/03/27 02:16:03;;;;;;;8.70;5.43;;;6.30;99.90;;;;;;4934662;29;20244;-64
2022/03/27 02:18:32;;;;;;;12.23;6.83;;;6.40;99.90;;;;;;4934265;29;20236;-64
2022/03/27 02:21:01;;;;;;;9.60;6.03;;;6.30;99.90;;;;;;4916565;29;20328;-64
2022/03/27 02:23:29;;;;;;;9.40;5.90;;;6.10;99.90;;;;;;4917047;29;20373;-64
2022/03/27 02:25:57;;;;;;;7.70;5.03;;;6.10;99.90;;;;;;4927668;29;20248;-64
2022/03/27 02:28:26;;;;;;;8.37;5.43;;;6.10;99.90;;;;;;4916558;29;20247;-64
2022/03/27 02:30:56;;;;;;;8.50;6.00;;;6.00;99.90;;;;;;4935350;29;20295;-64
2022/03/27 02:33:24;;;;;;;7.53;5.07;;;5.80;99.90;;;;;;4935008;29;20240;-64
2022/03/27 02:35:52;;;;;;;6.83;5.10;;;5.70;99.90;;;;;;4897567;29;20415;-64
2022/03/27 02:38:20;;;;;;;7.03;5.43;;;5.80;99.90;;;;;;4897494;29;20721;-64
2022/03/27 02:40:49;;;;;;;7.60;5.77;;;5.70;99.90;;;;;;4916001;29;20240;-64
2022/03/27 02:43:17;;;;;;;6.33;5.00;;;5.50;99.90;;;;;;4916249;29;20251;-64
2022/03/27 02:45:45;;;;;;;5.97;4.77;;;5.40;99.90;;;;;;4934439;29;20257;-64
2022/03/27 02:48:15;;;;;;;6.47;5.03;;;5.40;99.90;;;;;;4934912;29;20240;-64
2022/03/27 02:50:43;;;;;;;8.13;5.87;;;5.40;99.90;;;;;;4934717;29;20606;-64
2022/03/27 02:53:12;;;;;;;6.93;5.23;;;5.30;99.90;;;;;;4934973;29;20307;-64
2022/03/27 02:55:40;;;;;;;8.87;5.57;;;5.30;99.90;;;;;;4929723;29;20378;-64
2022/03/27 02:58:09;;;;;;;7.03;5.30;;;5.30;99.90;;;;;;4916217;29;20248;-64
2022/03/27 03:00:37;;;;;;;7.73;5.37;;;5.20;99.90;;;;;;4926930;29;20611;-64
2022/03/27 03:03:06;;;;;;;7.20;4.80;;;5.10;99.90;;;;;;4916115;29;20251;-64
2022/03/27 03:05:38;;;;;;;5.57;4.30;;;5.10;99.90;;;;;;4915814;29;20244;-64
2022/03/27 03:08:11;;;;;;;5.37;4.50;;;5.30;99.90;;;;;;4915928;29;20610;-64
2022/03/27 03:10:40;;;;;;;7.10;4.87;;;5.40;99.90;;;;;;4932701;29;20265;-64
2022/03/27 03:13:09;;;;;;;6.20;4.17;;;5.30;99.90;;;;;;4934584;29;20254;-64
2022/03/27 03:15:37;;;;;;;4.37;3.80;;;5.40;99.90;;;;;;4934297;29;20328;-64
2022/03/27 03:18:08;;;;;;;6.57;4.20;;;5.30;99.90;;;;;;4934997;29;20262;-64
2022/03/27 03:20:39;;;;;;;5.87;5.17;;;5.20;99.90;;;;;;4928422;29;20697;-64
2022/03/27 03:23:09;;;;;;;6.57;4.33;;;5.40;99.90;;;;;;4915428;29;20331;-64
2022/03/27 03:25:37;;;;;;;6.20;4.00;;;5.40;99.90;;;;;;4926281;29;20248;-64
2022/03/27 03:28:26;;;;;;;7.40;4.73;;;5.50;99.90;;;;;;4914578;29;20256;-64
2022/03/27 03:30:54;;;;;;;6.00;4.27;;;5.30;99.90;;;;;;4915239;29;20243;-64
2022/03/27 03:33:22;;;;;;;9.73;4.97;;;5.40;99.90;;;;;;4915254;29;20846;-64
2022/03/27 03:35:52;;;;;;;5.87;4.70;;;5.40;99.90;;;;;;4896403;29;20245;-64
2022/03/27 03:38:20;;;;;;;6.23;4.50;;;5.40;99.90;;;;;;4896409;29;20782;-64
2022/03/27 03:40:48;;;;;;;5.93;4.20;;;5.20;99.90;;;;;;4914894;29;20721;-64
2022/03/27 03:43:19;;;;;;;8.60;5.13;;;5.00;99.90;;;;;;4915010;29;20251;-64
2022/03/27 03:45:48;;;;;;;5.73;4.23;;;4.90;99.90;;;;;;4933668;29;20730;-64
2022/03/27 03:48:16;;;;;;;5.00;4.50;;;5.00;99.90;;;;;;4934052;29;20687;-64
2022/03/27 03:50:45;;;;;;;5.80;4.53;;;4.80;99.90;;;;;;4933696;29;20662;-64
2022/03/27 03:53:14;;;;;;;6.43;4.60;;;4.80;99.90;;;;;;4933806;29;20822;-64
2022/03/27 03:55:43;;;;;;;4.60;4.00;;;4.70;99.90;;;;;;4926261;29;20247;-64
2022/03/27 03:58:11;;;;;;;4.90;4.27;;;4.70;99.90;;;;;;4915118;29;20248;-64
2022/03/27 04:00:39;;;;;;;5.07;4.03;;;4.70;99.90;;;;;;4925701;29;20743;-64
2022/03/27 04:03:07;;;;;;;4.53;4.13;;;4.80;99.90;;;;;;4914687;29;20254;-64
2022/03/27 04:05:36;;;;;;;4.87;4.30;;;4.80;99.90;;;;;;4932132;29;20639;-64
2022/03/27 04:08:04;;;;;;;4.90;4.17;;;4.80;99.90;;;;;;4933600;29;20322;-64
2022/03/27 04:10:34;;;;;;;3.90;3.60;;;4.80;99.90;;;;;;4933420;29;20239;-64
2022/03/27 04:13:02;;;;;;;5.17;4.20;;;5.00;99.90;;;;;;4933559;29;20635;-64
2022/03/27 04:15:30;;;;;;;4.47;3.60;;;5.10;99.90;;;;;;4933441;29;20240;-64
2022/03/27 04:18:18;;;;;;;5.53;4.80;;;5.00;99.90;;;;;;4933202;29;20675;-64
2022/03/27 04:20:46;;;;;;;3.97;3.50;;;5.20;99.90;;;;;;4914559;29;20240;-64
2022/03/27 04:23:14;;;;;;;5.57;4.43;;;5.00;99.90;;;;;;4914458;29;20504;-64
2022/03/27 04:25:45;;;;;;;5.90;4.30;;;5.10;99.90;;;;;;4922828;29;20319;-64
2022/03/27 04:28:13;;;;;;;5.10;4.60;;;5.00;99.90;;;;;;4914590;29;20244;-64
2022/03/27 04:30:41;;;;;;;6.43;4.47;;;4.80;99.90;;;;;;4931572;29;20247;-64
2022/03/27 04:33:10;;;;;;;5.13;4.17;;;4.70;99.90;;;;;;4933252;29;20251;-64
2022/03/27 04:35:38;;;;;;;4.60;3.80;;;4.60;99.90;;;;;;4933078;29;20486;-64
2022/03/27 04:38:07;;;;;;;5.13;4.60;;;4.70;99.90;;;;;;4933468;29;20865;-64
2022/03/27 04:40:35;;;;;;;6.70;4.83;;;4.70;99.90;;;;;;4926850;29;20593;-64
2022/03/27 04:43:05;;;;;;;6.33;4.83;;;4.60;99.90;;;;;;4914433;29;21057;-64
2022/03/27 04:45:34;;;;;;;5.37;4.60;;;4.60;99.90;;;;;;4931003;29;20251;-64
2022/03/27 04:48:02;;;;;;;6.07;5.00;;;4.60;99.90;;;;;;4933053;29;20563;-64
2022/03/27 04:50:30;;;;;;;5.07;4.50;;;4.50;99.90;;;;;;4932756;29;20472;-64
2022/03/27 04:52:58;;;;;;;4.87;4.37;;;4.50;99.90;;;;;;4933150;29;20558;-64
2022/03/27 04:55:26;;;;;;;5.30;4.13;;;4.40;99.90;;;;;;4925531;29;20495;-64
2022/03/27 04:57:54;;;;;;;4.50;4.07;;;4.50;99.90;;;;;;4914029;29;20536;-64
2022/03/27 05:00:24;;;;;;;5.23;4.73;;;4.60;99.90;;;;;;4914031;29;20750;-64
2022/03/27 05:02:52;;;;;;;8.00;4.47;;;4.60;99.90;;;;;;4913604;29;20773;-64
2022/03/27 05:05:20;;;;;;;5.40;4.83;;;4.60;99.90;;;;;;4915892;29;20475;-64
2022/03/27 05:07:49;;;;;;;5.27;4.77;;;4.60;99.90;;;;;;4913304;29;20492;-64
2022/03/27 05:10:17;;;;;;;4.90;4.30;;;4.50;99.90;;;;;;4913408;29;21007;-64
2022/03/27 05:12:45;;;;;;;4.87;4.33;;;4.40;99.90;;;;;;4913340;29;20254;-64
2022/03/27 05:15:14;;;;;;;6.97;4.00;;;4.40;99.90;;;;;;4913638;29;20515;-64
2022/03/27 05:17:51;;;;;;;5.00;4.50;;;4.60;99.90;;;;;;4913177;29;20483;-64
2022/03/27 05:20:20;;;;;;;5.57;4.50;;;4.60;99.90;;;;;;4915870;29;20487;-64
2022/03/27 05:22:48;;;;;;;4.60;4.20;;;4.80;99.90;;;;;;4913559;29;20483;-64
2022/03/27 05:25:17;;;;;;;5.60;4.87;;;4.60;99.90;;;;;;4913463;29;20560;-64
2022/03/27 05:27:47;;;;;;;5.10;4.60;;;4.50;99.90;;;;;;4913225;29;20500;-64
2022/03/27 05:30:17;;;;;;;5.20;4.70;;;4.60;99.90;;;;;;4911053;29;20492;-64
2022/03/27 05:32:46;;;;;;;5.10;4.37;;;4.60;99.90;;;;;;4913285;29;20996;-64
2022/03/27 05:35:15;;;;;;;5.23;4.50;;;4.50;99.90;;;;;;4911461;29;20511;-64
2022/03/27 05:37:45;;;;;;;5.33;4.73;;;4.70;99.90;;;;;;4913590;29;20480;-64
2022/03/27 05:40:17;;;;;;;6.03;4.93;;;4.80;99.90;;;;;;4913239;29;20492;-64
2022/03/27 05:42:46;;;;;;;6.17;4.67;;;4.70;99.90;;;;;;4913520;29;20666;-64
2022/03/27 05:45:14;;;;;;;5.73;4.40;;;4.70;99.90;;;;;;4913581;29;20253;-64
2022/03/27 05:47:43;;;;;;;6.07;4.97;;;4.90;99.90;;;;;;4913355;29;20247;-64
2022/03/27 05:50:14;;;;;;;4.97;4.47;;;4.80;99.90;;;;;;4914471;29;20248;-64
2022/03/27 05:52:44;;;;;;;4.53;4.13;;;4.60;99.90;;;;;;4917008;29;20275;-64
2022/03/27 05:55:13;;;;;;;5.87;4.97;;;4.70;99.90;;;;;;4931097;29;20705;-64
2022/03/27 05:57:42;;;;;;;5.73;5.13;;;5.10;99.90;;;;;;4935839;29;20479;-64
2022/03/27 06:00:13;;;;;;;5.20;4.70;;;4.90;99.90;;;;;;4921857;29;20307;-64
2022/03/27 06:02:44;;;;;;;6.53;4.83;;;5.10;99.90;;;;;;4916828;29;21627;-64
2022/03/27 06:05:15;;;;;;;7.00;5.57;;;5.10;99.90;;;;;;4931058;29;20562;-64
2022/03/27 06:07:45;;;;;;;6.70;5.50;;;5.00;99.90;;;;;;4935332;29;20271;-64
2022/03/27 06:10:14;;;;;;;5.70;5.10;;;4.90;99.90;;;;;;4935367;29;20486;-64
2022/03/27 06:12:44;;;;;;;5.80;5.30;;;4.80;99.90;;;;;;4935618;29;20475;-64
2022/03/27 06:15:14;;;;;;;5.17;4.60;;;4.80;99.90;;;;;;4935547;29;20704;-64
2022/03/27 06:17:44;;;;;;;6.37;5.00;;;4.70;99.90;;;;;;4931062;29;20484;-64
2022/03/27 06:20:15;;;;;;;7.27;4.83;;;4.70;99.90;;;;;;4916473;29;21012;-64
2022/03/27 06:22:44;;;;;;;6.33;5.60;;;4.80;99.90;;;;;;4916431;29;20484;-64
2022/03/27 06:25:14;;;;;;;8.47;5.40;;;4.70;99.90;;;;;;4930764;29;20554;-64
2022/03/27 06:27:43;;;;;;;5.60;5.03;;;4.70;99.90;;;;;;4935368;29;20499;-64
2022/03/27 06:30:13;;;;;;;5.57;5.07;;;4.70;99.90;;;;;;4935129;29;20491;-64
2022/03/27 06:32:41;;;;;;;6.63;5.30;;;4.70;99.90;;;;;;4935215;29;20471;-64
2022/03/27 06:35:10;;;;;;;22.40;13.13;;;4.70;99.90;;;;;;4921537;29;20278;-64
2022/03/27 06:37:40;;;;;;;15.67;11.33;;;4.70;99.90;;;;;;4915432;29;20491;-64
2022/03/27 06:40:10;;;;;;;9.13;7.87;;;4.80;99.90;;;;;;4915605;29;20494;-64
2022/03/27 06:42:38;;;;;;;12.57;8.13;;;4.80;99.90;;;;;;4908035;29;20477;-64
2022/03/27 06:45:08;;;;;;;8.13;7.30;;;4.80;99.90;;;;;;4916421;29;20476;-64
2022/03/27 06:47:36;;;;;;;7.90;6.30;;;4.80;99.90;;;;;;4915318;29;20832;-64
2022/03/27 06:50:06;;;;;;;6.73;5.40;;;4.90;99.90;;;;;;4917824;29;20240;-64
2022/03/27 06:52:35;;;;;;;6.30;5.63;;;5.00;99.90;;;;;;4915780;29;20602;-64
2022/03/27 06:55:07;;;;;;;7.57;5.03;;;5.10;99.90;;;;;;4915965;29;20243;-64
2022/03/27 06:57:35;;;;;;;7.60;5.77;;;5.40;99.90;;;;;;4915985;29;20240;-64
2022/03/27 07:03:03;;;;;;;6.17;5.37;;;5.30;99.90;;;;;;4915196;29;20596;-64
2022/03/27 07:05:31;;;;;;;5.67;5.07;;;5.30;99.90;;;;;;4932084;29;20249;-64
2022/03/27 07:08:05;;;;;;;6.23;4.57;;;5.30;99.90;;;;;;4934927;29;20776;-64
2022/03/27 07:10:36;;;;;;;6.03;4.47;;;5.40;99.90;;;;;;4917509;29;20484;-64
2022/03/27 07:13:04;;;;;;;6.40;4.73;;;5.50;99.90;;;;;;4916036;29;20535;-64
2022/03/27 07:15:32;;;;;;;6.13;4.67;;;5.50;99.90;;;;;;4915284;29;20484;-64
2022/03/27 07:18:00;;;;;;;8.17;4.93;;;5.80;99.90;;;;;;4915196;29;20266;-64
2022/03/27 07:20:31;;;;;;;5.53;4.60;;;5.70;99.90;;;;;;4915217;29;20620;-64
2022/03/27 07:23:01;;;;;;;8.43;5.23;;;5.80;99.90;;;;;;4910134;29;20240;-64
2022/03/27 07:25:32;;;;;;;8.80;5.30;;;5.80;99.90;;;;;;4913617;29;20240;-64
2022/03/27 07:28:02;;;;;;;8.07;5.10;;;6.00;99.90;;;;;;4915059;29;20630;-64
2022/03/27 07:30:31;;;;;;;7.47;5.17;;;5.90;99.90;;;;;;4914777;29;20251;-64
2022/03/27 07:32:59;;;;;;;8.30;5.20;;;6.00;99.90;;;;;;4914909;29;20243;-64
2022/03/27 07:35:30;;;;;;;7.70;4.93;;;6.00;99.90;;;;;;4914903;29;20256;-64
2022/03/27 07:37:59;;;;;;;8.27;5.00;;;6.00;99.90;;;;;;4919725;29;20248;-64
2022/03/27 07:40:27;;;;;;;8.40;5.13;;;6.10;99.90;;;;;;4921727;29;20344;-64
2022/03/27 07:42:57;;;;;;;10.70;6.00;;;6.20;99.90;;;;;;4924603;29;20266;-64
2022/03/27 07:45:28;;;;;;;10.43;6.10;;;6.30;99.90;;;;;;4931841;29;20263;-64
2022/03/27 07:47:57;;;;;;;6.93;5.67;;;6.30;99.90;;;;;;4927523;29;20240;-64
2022/03/27 07:50:28;;;;;;;10.80;5.77;;;6.40;99.90;;;;;;4925599;29;20243;-63
2022/03/27 07:52:56;;;;;;;8.10;5.50;;;6.30;99.90;;;;;;4928392;29;20299;-64
2022/03/27 07:55:24;;;;;;;8.77;5.77;;;6.40;99.90;;;;;;4917235;29;20241;-64
2022/03/27 07:57:55;;;;;;;10.97;5.70;;;6.40;99.90;;;;;;4914700;29;20708;-64
2022/03/27 08:00:27;;;;;;;14.70;7.60;;;6.50;99.90;;;;;;4922058;29;20274;-64
2022/03/27 08:02:55;;;;;;;16.63;8.87;;;6.50;99.90;;;;;;4920218;29;20291;-64
2022/03/27 08:05:24;;;;;;;14.67;8.67;;;6.50;99.90;;;;;;4922213;29;20240;-64
2022/03/27 08:07:53;;;;;;;13.07;7.73;;;6.60;99.90;;;;;;4921196;29;20326;-64
2022/03/27 08:10:21;;;;;;;11.73;7.33;;;6.70;99.90;;;;;;4924217;29;20768;-64
2022/03/27 08:12:49;;;;;;;15.50;6.30;;;6.70;99.90;;;;;;4926972;29;20263;-64
2022/03/27 08:15:18;;;;;;;11.60;6.07;;;6.70;99.90;;;;;;4925451;29;20240;-64
2022/03/27 08:17:53;;;;;;;11.27;5.17;;;6.80;99.90;;;;;;4926843;29;20239;-64
2022/03/27 08:20:23;;;;;;;13.70;6.27;;;7.00;99.90;;;;;;4920846;29;20240;-64
2022/03/27 08:22:52;;;;;;;9.07;5.60;;;7.10;99.90;;;;;;4925319;29;20234;-64
2022/03/27 08:28:09;;;;;;;12.17;6.13;;;7.20;99.90;;;;;;4929460;29;20246;-64
2022/03/27 08:30:39;;;;;;;12.37;6.30;;;7.30;99.90;;;;;;4925844;29;20235;-64
2022/03/27 08:33:09;;;;;;;12.27;6.23;;;7.30;99.90;;;;;;4906209;29;20249;-64
2022/03/27 08:35:41;;;;;;;10.77;6.57;;;7.30;99.90;;;;;;4919472;29;20232;-64
2022/03/27 08:38:09;;;;;;;12.27;6.60;;;7.30;99.90;;;;;;4904906;29;20248;-64
2022/03/27 08:40:39;;;;;;;13.23;6.87;;;7.50;99.90;;;;;;4915965;29;20316;-64
2022/03/27 08:43:11;;;;;;;12.97;7.00;;;7.50;99.90;;;;;;4921467;29;20254;-64
2022/03/27 08:45:41;;;;;;;13.30;6.93;;;7.60;99.90;;;;;;4900644;29;20271;-64
2022/03/27 08:48:11;;;;;;;13.60;7.03;;;7.70;99.90;;;;;;4915132;29;20248;-64
2022/03/27 08:50:45;;;;;;;14.03;7.80;;;7.70;99.90;;;;;;4915080;29;20243;-64
2022/03/27 08:53:14;;;;;;;12.23;6.87;;;7.70;99.90;;;;;;4922989;29;20716;-63
2022/03/27 08:55:46;;;;;;;17.03;8.33;;;7.80;99.90;;;;;;4913872;29;20757;-64
2022/03/27 08:58:15;;;;;;;15.27;7.80;;;7.80;99.90;;;;;;4914540;29;20257;-64
2022/03/27 09:00:44;;;;;;;17.30;8.30;;;7.90;99.90;;;;;;4916009;29;20573;-64
2022/03/27 09:03:14;;;;;;;16.90;8.03;;;8.00;99.90;;;;;;4920152;29;20336;-64
2022/03/27 09:05:43;;;;;;;16.00;8.17;;;8.10;99.90;;;;;;4917114;29;20276;-64
2022/03/27 09:08:12;;;;;;;20.50;8.50;;;8.20;99.90;;;;;;4914330;29;21011;-63
2022/03/27 09:10:41;;;;;;;18.33;8.97;;;8.30;99.90;;;;;;4915391;29;20327;-63
2022/03/27 09:13:13;;;;;;;22.97;8.10;;;8.40;99.90;;;;;;4918238;29;20327;-64
2022/03/27 09:15:42;;;;;;;15.40;8.43;;;8.60;99.90;;;;;;4920815;29;20304;-63
2022/03/27 09:18:12;;;;;;;22.07;8.87;;;8.70;99.90;;;;;;4915517;29;20308;-64
2022/03/27 09:20:44;;;;;;;19.17;9.57;;;8.70;99.90;;;;;;4920015;29;20601;-64
2022/03/27 09:23:21;;;;;;;18.10;8.33;;;8.80;99.90;;;;;;4922795;29;20822;-63
2022/03/27 09:25:53;;;;;;;18.80;8.47;;;8.90;99.90;;;;;;4916416;29;20259;-63
2022/03/27 09:28:27;;;;;;;17.10;7.60;;;8.90;99.90;;;;;;4917911;29;20252;-64
2022/03/27 09:30:57;;;;;;;18.37;8.20;;;8.90;99.90;;;;;;4918716;29;20302;-64
2022/03/27 09:33:47;;;;;;;15.77;8.13;;;9.00;99.90;;;;;;4918368;29;20248;-64
2022/03/27 09:36:22;;;;;;;17.93;8.17;;;9.10;99.90;;;;;;4917382;29;20713;-64
2022/03/27 09:39:10;;;;;;;18.53;9.33;;;9.20;99.90;;;;;;4918826;29;20644;-64
2022/03/27 09:41:44;;;;;;;21.97;8.37;;;9.30;99.90;;;;;;4922444;29;20649;-64
2022/03/27 09:44:15;;;;;;;17.27;8.57;;;9.30;99.90;;;;;;4923375;29;20272;-63
2022/03/27 09:47:00;;;;;;;16.80;7.77;;;9.20;99.90;;;;;;4925997;29;20248;-63
2022/03/27 09:49:47;;;;;;;21.77;8.23;;;9.20;99.90;;;;;;4922375;29;20241;-63
2022/03/27 09:52:19;;;;;;;16.93;7.60;;;9.40;99.90;;;;;;4925718;29;20253;-64
2022/03/27 09:54:52;;;;;;;17.03;7.70;;;9.50;99.90;;;;;;4921124;29;20244;-63
2022/03/27 09:57:23;;;;;;;18.67;7.50;;;9.60;99.90;;;;;;4918273;29;20331;-64
2022/03/27 09:59:53;;;;;;;18.50;7.57;;;9.50;99.90;;;;;;4917539;29;20605;-64
2022/03/27 10:02:24;;;;;;;19.93;8.03;;;9.60;99.90;;;;;;4923444;29;20249;-64
2022/03/27 10:04:58;;;;;;;19.57;8.33;;;9.50;99.90;;;;;;4919994;29;20236;-64
2022/03/27 10:07:34;;;;;;;19.13;7.37;;;9.50;99.90;;;;;;4918031;29;20249;-63
2022/03/27 10:10:06;;;;;;;16.50;7.37;;;9.50;99.90;;;;;;4919898;29;20390;-64
2022/03/27 10:12:37;;;;;;;16.03;7.33;;;9.70;99.90;;;;;;4921196;29;20332;-64
2022/03/27 10:15:08;;;;;;;16.00;7.37;;;9.80;99.90;;;;;;4919426;29;20362;-63
2022/03/27 10:17:38;;;;;;;15.53;7.53;;;9.80;99.90;;;;;;4919144;29;20716;-64
2022/03/27 10:20:09;;;;;;;16.87;8.13;;;9.70;99.90;;;;;;4922183;29;20244;-64
2022/03/27 10:22:43;;;;;;;20.93;8.10;;;9.70;99.90;;;;;;4916649;29;20278;-64
2022/03/27 10:25:14;;;;;;;16.67;7.30;;;9.70;99.90;;;;;;4916437;29;20658;-64
2022/03/27 10:27:44;;;;;;;17.30;7.67;;;9.80;99.90;;;;;;4916337;29;20269;-64
2022/03/27 10:30:14;;;;;;;17.90;7.97;;;9.90;99.90;;;;;;4916408;29;20281;-64
2022/03/27 10:32:44;;;;;;;13.70;7.53;;;9.80;99.90;;;;;;4915968;29;20238;-64
2022/03/27 10:35:35;;;;;;;21.13;8.30;;;9.90;99.90;;;;;;4916317;29;20270;-64
2022/03/27 10:38:16;;;;;;;22.33;8.80;;;9.80;99.90;;;;;;4913678;29;20242;-64
2022/03/27 10:40:52;;;;;;;16.17;7.70;;;9.80;99.90;;;;;;4926948;29;20685;-64
2022/03/27 10:43:29;;;;;;;20.17;8.17;;;9.90;99.90;;;;;;4913870;29;20345;-64
2022/03/27 10:46:20;;;;;;;23.37;8.57;;;9.90;99.90;;;;;;4897379;29;20319;-64
2022/03/27 10:48:50;;;;;;;19.10;8.50;;;10.00;99.90;;;;;;4900470;29;20249;-64
2022/03/27 10:51:39;;;;;;;22.67;8.83;;;10.10;99.90;;;;;;4935088;29;20247;-64
2022/03/27 10:54:11;;;;;;;20.80;8.57;;;10.10;99.90;;;;;;4929699;29;20246;-64
2022/03/27 10:56:42;;;;;;;22.93;9.43;;;10.20;99.90;;;;;;4915660;29;20246;-64
2022/03/27 10:59:16;;;;;;;21.80;8.77;;;10.30;99.90;;;;;;4921331;29;20245;-64
2022/03/27 11:01:46;;;;;;;22.80;8.60;;;10.40;99.90;;;;;;4914726;29;20246;-64
2022/03/27 11:04:16;;;;;;;23.33;9.47;;;10.50;99.90;;;;;;4931535;29;20249;-64
2022/03/27 11:06:46;;;;;;;19.47;8.70;;;10.50;99.90;;;;;;4926593;29;20733;-64
2022/03/27 11:09:34;;;;;;;26.50;10.00;;;10.60;99.90;;;;;;4934281;29;20246;-64
2022/03/27 11:12:08;;;;;;;24.47;9.63;;;10.60;99.90;;;;;;4926783;29;20301;-64
2022/03/27 11:15:02;;;;;;;23.40;8.83;;;10.70;99.90;;;;;;4928407;29;20234;-64
2022/03/27 11:17:43;;;;;;;17.93;8.57;;;10.60;99.90;;;;;;4926347;29;20237;-64
2022/03/27 11:21:02;;;;;;;24.57;9.40;;;10.60;99.90;;;;;;4924612;29;20738;-64
2022/03/27 11:23:33;;;;;;;20.80;8.60;;;10.80;99.90;;;;;;4922442;29;20248;-64
2022/03/27 11:26:05;;;;;;;21.70;9.27;;;10.80;99.90;;;;;;4926989;29;20238;-64
2022/03/27 11:28:47;;;;;;;27.37;10.20;;;10.90;99.90;;;;;;4915442;29;20718;-64
2022/03/27 11:31:30;;;;;;;23.67;8.73;;;11.00;99.90;;;;;;4915135;29;20242;-64
2022/03/27 11:34:20;;;;;;;22.60;8.47;;;11.10;99.90;;;;;;4916739;29;20249;-64
2022/03/27 11:37:05;;;;;;;21.30;8.83;;;11.10;99.90;;;;;;4912148;29;20236;-64
2022/03/27 11:39:35;;;;;;;17.60;8.00;;;11.00;99.90;;;;;;4910170;29;20293;-64
2022/03/27 11:42:29;;;;;;;20.37;9.10;;;11.00;99.90;;;;;;4910391;29;20694;-64
2022/03/27 11:45:16;;;;;;;22.20;8.90;;;10.90;99.90;;;;;;4911601;29;20330;-64
2022/03/27 11:47:47;;;;;;;22.60;9.23;;;10.80;99.90;;;;;;4909925;29;20246;-64
2022/03/27 11:50:31;;;;;;;19.77;9.00;;;10.80;99.90;;;;;;4910347;29;20265;-63
2022/03/27 11:53:01;;;;;;;18.90;9.00;;;10.80;99.90;;;;;;4910263;29;20257;-64
2022/03/27 11:55:30;;;;;;;21.43;10.00;;;10.90;99.90;;;;;;4909139;29;20266;-64
2022/03/27 11:58:03;;;;;;;21.43;8.87;;;11.10;99.90;;;;;;4909617;29;20258;-64
2022/03/27 12:00:37;;;;;;;20.53;9.03;;;11.30;99.90;;;;;;4911045;29;20240;-64
2022/03/27 12:03:14;;;;;;;18.77;8.87;;;11.40;99.90;;;;;;4911864;29;20341;-64
2022/03/27 12:05:43;;;;;;;19.30;8.80;;;11.70;99.90;;;;;;4912796;29;20762;-64
2022/03/27 12:08:15;;;;;;;20.03;9.67;;;11.90;99.90;;;;;;4909084;29;20254;-64
2022/03/27 12:10:45;;;;;;;18.53;9.60;;;11.90;99.90;;;;;;4908843;29;20250;-64
2022/03/27 12:13:15;;;;;;;21.03;10.37;;;12.00;99.90;;;;;;4909233;29;20670;-64
2022/03/27 12:15:49;;;;;;;22.93;10.27;;;12.00;99.90;;;;;;4908638;29;20242;-63
2022/03/27 12:18:29;;;;;;;24.13;9.63;;;12.10;99.90;;;;;;4908911;29;20251;-64
2022/03/27 12:20:58;;;;;;;21.17;10.67;;;12.30;99.90;;;;;;4909190;29;20718;-64
2022/03/27 12:23:28;;;;;;;20.47;9.60;;;12.40;99.90;;;;;;4907656;29;20241;-64
2022/03/27 12:29:40;;;;;;;20.50;9.80;;;12.40;99.90;;;;;;4909579;29;20263;-64
2022/03/27 12:32:07;;;;;;;17.97;9.93;;;12.70;99.90;;;;;;4907947;29;20280;-64
2022/03/27 12:34:41;;;;;;;22.30;9.93;;;12.80;99.90;;;;;;4908030;29;20608;-64
2022/03/27 12:37:12;;;;;;;21.30;10.93;;;12.60;99.90;;;;;;4908291;29;20244;-64
2022/03/27 12:40:03;;;;;;;26.10;12.43;;;12.40;99.90;;;;;;4908495;29;20565;-64
2022/03/27 12:42:40;;;;;;;27.37;11.23;;;12.20;99.90;;;;;;4907712;29;20245;-63
2022/03/27 12:45:12;;;;;;;28.02;13.20;;;12.20;99.90;;;;;;4907807;29;20459;-64
2022/03/27 12:47:42;;;;;;;25.20;11.67;;;12.20;99.90;;;;;;4917398;29;20302;-64
2022/03/27 12:50:12;;;;;;;23.23;11.70;;;12.40;99.90;;;;;;4917207;29;20251;-64
2022/03/27 12:52:53;;;;;;;25.98;13.77;;;12.80;99.90;;;;;;4918878;29;20441;-65
2022/03/27 12:55:23;;;;;;;25.30;11.70;;;12.70;99.90;;;;;;4915986;29;20306;-66
2022/03/27 12:57:56;;;;;;;27.60;12.23;;;12.80;99.90;;;;;;4915126;29;20238;-64
2022/03/27 13:00:28;;;;;;;26.00;12.53;;;12.60;99.90;;;;;;4918935;29;20822;-62
2022/03/27 13:03:10;;;;;;;29.98;13.20;;;12.60;99.90;;;;;;4923243;29;20456;-62
2022/03/27 13:05:39;;;;;;;33.27;11.97;;;12.70;99.90;;;;;;4924195;29;20759;-62
2022/03/27 13:08:08;;;;;;;23.90;11.53;;;12.80;99.90;;;;;;4923539;29;20251;-63
2022/03/27 13:10:38;;;;;;;24.33;12.33;;;12.80;99.90;;;;;;4920693;29;20242;-62
2022/03/27 13:13:13;;;;;;;21.83;11.73;;;12.70;99.90;;;;;;4916430;29;20251;-62
2022/03/27 13:15:47;;;;;;;32.07;12.50;;;12.80;99.90;;;;;;4926289;29;20605;-62
2022/03/27 13:18:17;;;;;;;25.03;11.37;;;12.70;99.90;;;;;;4935147;29;20253;-62
2022/03/27 13:20:46;;;;;;;27.37;12.07;;;12.70;99.90;;;;;;4929954;29;20266;-62